createdAt,value
2019-04-26T00:03:09.365Z,13.80
2019-04-26T00:06:30.111Z,13.00
2019-04-26T00:09:56.595Z,12.90
2019-04-26T00:45:41.518Z,14.83
2019-04-26T00:55:09.830Z,12.68
2019-04-26T01:00:42.869Z,10.90
2019-04-26T01:04:22.946Z,16.07
2019-04-26T01:11:11.276Z,13.93
2019-04-26T01:14:19.985Z,12.30
2019-04-26T01:21:00.235Z,15.50
2019-04-26T01:32:26.716Z,15.58
2019-04-26T01:43:12.586Z,11.20
2019-04-26T01:53:44.954Z,10.90
2019-04-26T02:03:05.048Z,12.33
2019-04-26T02:12:22.450Z,8.63
2019-04-26T02:15:36.719Z,15.98
2019-04-26T02:18:51.547Z,13.32
2019-04-26T02:25:45.226Z,8.68
2019-04-26T02:32:07.464Z,8.20
2019-04-26T02:42:30.184Z,9.78
2019-04-26T02:48:37.803Z,13.22
2019-04-26T02:52:08.994Z,8.83
2019-04-26T02:55:22.081Z,7.53
2019-04-26T03:05:23.771Z,11.30
2019-04-26T03:08:48.248Z,9.20
2019-04-26T03:18:06.526Z,11.25
2019-04-26T03:21:11.168Z,8.73
2019-04-26T03:28:06.349Z,15.30
2019-04-26T03:31:53.262Z,12.70
2019-04-26T03:35:56.430Z,8.33
2019-04-26T03:38:59.025Z,10.70
2019-04-26T03:41:44.297Z,12.60
2019-04-26T03:44:33.020Z,9.07
2019-04-26T03:47:05.969Z,11.73
2019-04-26T03:50:15.679Z,15.47
2019-04-26T03:53:12.462Z,15.93
2019-04-26T03:56:26.506Z,9.50
2019-04-26T03:59:26.500Z,9.50
2019-04-26T04:02:33.201Z,9.70
2019-04-26T04:05:24.596Z,12.27
2019-04-26T04:07:57.529Z,12.90
2019-04-26T04:10:31.392Z,14.37
2019-04-26T04:13:39.018Z,11.07
2019-04-26T04:16:20.812Z,10.03
2019-04-26T04:18:55.079Z,13.45
2019-04-26T04:21:53.817Z,9.88
2019-04-26T04:24:35.775Z,8.83
2019-04-26T04:27:28.543Z,11.60
2019-04-26T04:30:40.618Z,12.40
2019-04-26T04:33:24.533Z,14.58
2019-04-26T04:35:59.946Z,11.17
2019-04-26T04:39:14.862Z,10.72
2019-04-26T04:42:05.632Z,8.40
2019-04-26T04:45:21.885Z,11.53
2019-04-26T04:48:29.753Z,14.53
2019-04-26T04:51:21.878Z,12.20
2019-04-26T04:54:19.090Z,11.28
2019-04-26T04:57:06.745Z,11.93
2019-04-26T05:00:03.840Z,15.20
2019-04-26T05:02:59.536Z,13.50
2019-04-26T05:06:06.898Z,10.50
2019-04-26T05:08:44.434Z,15.28
2019-04-26T05:11:39.951Z,9.85
2019-04-26T05:14:16.944Z,16.12
2019-04-26T05:17:16.558Z,18.23
2019-04-26T05:20:15.231Z,17.62
2019-04-26T05:23:24.013Z,16.30
2019-04-26T05:27:13.051Z,17.70
2019-04-26T05:30:09.131Z,15.23
2019-04-26T05:33:02.452Z,15.63
2019-04-26T05:36:00.710Z,29.67
2019-04-26T05:39:32.452Z,31.33
2019-04-26T05:42:30.136Z,31.52
2019-04-26T05:45:28.462Z,20.70
2019-04-26T05:48:24.918Z,26.68
2019-04-26T05:51:35.895Z,21.23
2019-04-26T05:54:47.966Z,21.42
2019-04-26T05:58:06.691Z,18.90
2019-04-26T06:01:10.706Z,21.68
2019-04-26T06:04:41.086Z,22.95
2019-04-26T06:07:35.538Z,13.28
2019-04-26T06:10:30.720Z,16.23
2019-04-26T06:13:52.191Z,17.57
2019-04-26T06:16:42.726Z,18.50
2019-04-26T06:19:22.992Z,14.13
2019-04-26T06:22:07.802Z,15.58
2019-04-26T06:25:10.862Z,15.85
2019-04-26T06:28:04.206Z,14.30
2019-04-26T06:31:03.497Z,15.20
2019-04-26T06:33:52.212Z,13.28
2019-04-26T06:36:46.733Z,15.32
2019-04-26T06:39:51.403Z,20.20
2019-04-26T06:43:40.146Z,20.62
2019-04-26T06:46:58.168Z,13.95
2019-04-26T06:50:22.588Z,27.70
2019-04-26T06:53:09.355Z,17.12
2019-04-26T06:55:51.847Z,16.67
2019-04-26T06:59:03.480Z,16.57
2019-04-26T07:01:56.552Z,23.07
2019-04-26T07:05:07.157Z,17.00
2019-04-26T07:08:26.667Z,17.07
2019-04-26T07:11:43.330Z,21.12
2019-04-26T07:14:43.662Z,18.25
2019-04-26T07:17:18.883Z,16.07
2019-04-26T07:20:33.013Z,21.33
2019-04-26T07:23:42.215Z,18.10
2019-04-26T07:26:47.440Z,18.52
2019-04-26T07:29:46.350Z,20.90
2019-04-26T07:32:34.694Z,20.00
2019-04-26T07:35:49.599Z,20.05
2019-04-26T07:39:20.670Z,12.78
2019-04-26T07:42:38.023Z,17.02
2019-04-26T07:45:43.800Z,14.38
2019-04-26T07:48:53.268Z,23.73
2019-04-26T07:52:27.768Z,11.83
2019-04-26T07:55:31.219Z,18.92
2019-04-26T07:58:36.363Z,15.55
2019-04-26T08:01:37.139Z,16.40
2019-04-26T08:04:11.518Z,16.60
2019-04-26T08:06:52.124Z,19.65
2019-04-26T08:09:27.469Z,17.50
2019-04-26T08:12:05.957Z,12.70
2019-04-26T08:14:58.016Z,23.62
2019-04-26T08:17:53.370Z,16.57
2019-04-26T08:20:55.792Z,17.40
2019-04-26T08:23:42.283Z,14.50
2019-04-26T08:26:11.207Z,18.48
2019-04-26T08:28:43.440Z,16.90
2019-04-26T08:31:20.024Z,16.87
2019-04-26T08:33:56.512Z,19.35
2019-04-26T08:36:31.171Z,17.32
2019-04-26T08:39:02.065Z,18.80
2019-04-26T08:41:35.221Z,17.85
2019-04-26T08:44:21.363Z,16.87
2019-04-26T08:47:16.732Z,15.00
2019-04-26T08:49:59.873Z,19.82
2019-04-26T08:52:33.003Z,14.43
2019-04-26T08:55:06.705Z,16.25
2019-04-26T08:57:39.651Z,21.30
2019-04-26T09:00:22.356Z,16.42
2019-04-26T09:03:16.693Z,16.12
2019-04-26T09:06:10.205Z,14.53
2019-04-26T09:08:43.621Z,16.20
2019-04-26T09:11:24.057Z,19.17
2019-04-26T09:13:51.003Z,16.52
2019-04-26T09:16:21.985Z,19.20
2019-04-26T09:18:54.322Z,15.35
2019-04-26T09:21:32.815Z,20.05
2019-04-26T09:24:12.924Z,28.67
2019-04-26T09:26:56.100Z,20.50
2019-04-26T09:29:35.313Z,23.05
2019-04-26T09:32:14.316Z,27.77
2019-04-26T09:34:44.124Z,23.62
2019-04-26T09:37:14.270Z,18.60
2019-04-26T09:39:44.159Z,32.78
2019-04-26T09:42:30.214Z,26.75
2019-04-26T09:45:21.873Z,21.00
2019-04-26T09:47:56.347Z,23.92
2019-04-26T09:50:40.820Z,26.95
2019-04-26T09:53:10.624Z,21.23
2019-04-26T09:55:40.569Z,21.33
2019-04-26T09:58:10.400Z,28.35
2019-04-26T10:00:44.061Z,24.82
2019-04-26T10:03:12.040Z,35.45
2019-04-26T10:05:41.837Z,19.32
2019-04-26T10:08:13.155Z,22.10
2019-04-26T10:10:42.871Z,18.25
2019-04-26T10:13:30.005Z,24.45
2019-04-26T10:16:13.740Z,23.87
2019-04-26T10:18:46.567Z,37.13
2019-04-26T10:21:16.283Z,33.60
2019-04-26T10:23:46.059Z,24.40
2019-04-26T10:26:16.081Z,25.85
2019-04-26T10:28:46.774Z,26.75
2019-04-26T10:31:17.539Z,19.87
2019-04-26T10:33:48.419Z,20.75
2019-04-26T10:36:18.306Z,27.00
2019-04-26T10:38:48.555Z,29.70
2019-04-26T10:41:18.407Z,27.48
2019-04-26T10:43:48.297Z,27.00
2019-04-26T10:46:18.099Z,29.07
2019-04-26T10:48:49.662Z,35.50
2019-04-26T10:51:25.255Z,27.40
2019-04-26T10:54:05.834Z,24.55
2019-04-26T10:56:50.127Z,30.50
2019-04-26T10:59:23.858Z,26.77
2019-04-26T11:01:53.665Z,25.55
2019-04-26T11:04:25.776Z,28.30
2019-04-26T11:06:58.075Z,31.07
2019-04-26T11:09:26.403Z,25.40
2019-04-26T11:11:56.219Z,28.85
2019-04-26T11:14:26.070Z,20.20
2019-04-26T11:16:56.103Z,32.98
2019-04-26T11:19:25.904Z,27.17
2019-04-26T11:21:56.023Z,32.60
2019-04-26T11:24:25.790Z,25.72
2019-04-26T11:26:55.579Z,30.20
2019-04-26T11:29:28.753Z,23.05
2019-04-26T11:31:58.463Z,39.90
2019-04-26T11:34:29.269Z,29.40
2019-04-26T11:36:59.213Z,26.68
2019-04-26T11:39:29.014Z,26.27
2019-04-26T11:41:59.147Z,28.55
2019-04-26T11:44:28.927Z,32.58
2019-04-26T11:46:59.342Z,35.17
2019-04-26T11:49:30.268Z,27.05
2019-04-26T11:52:02.762Z,27.82
2019-04-26T11:54:31.988Z,31.52
2019-04-26T11:57:01.784Z,31.02
2019-04-26T11:59:31.877Z,26.60
2019-04-26T12:02:01.880Z,32.58
2019-04-26T12:04:55.186Z,36.63
2019-04-26T12:07:34.285Z,25.10
2019-04-26T12:10:05.937Z,28.15
2019-04-26T12:12:37.116Z,41.75
2019-04-26T12:15:08.469Z,23.55
2019-04-26T12:17:38.737Z,26.27
2019-04-26T12:20:09.007Z,25.62
2019-04-26T12:22:43.328Z,26.45
2019-04-26T12:25:13.343Z,28.83
2019-04-26T12:27:43.164Z,29.42
2019-04-26T12:30:13.364Z,32.00
2019-04-26T12:32:43.147Z,35.83
2019-04-26T12:35:13.081Z,24.82
2019-04-26T12:37:42.830Z,24.82
2019-04-26T12:40:13.015Z,27.93
2019-04-26T12:42:43.443Z,32.42
2019-04-26T12:45:32.627Z,28.73
2019-04-26T12:48:03.825Z,34.03
2019-04-26T12:50:36.741Z,28.12
2019-04-26T12:53:05.087Z,30.23
2019-04-26T12:55:34.859Z,26.93
2019-04-26T12:58:04.936Z,22.98
2019-04-26T13:00:37.512Z,25.37
2019-04-26T13:03:19.407Z,27.00
2019-04-26T13:05:38.413Z,28.80
2019-04-26T13:08:08.340Z,37.67
2019-04-26T13:11:07.424Z,39.35
2019-04-26T13:14:01.051Z,29.67
2019-04-26T13:16:52.562Z,28.62
2019-04-26T13:19:22.356Z,29.75
2019-04-26T13:21:52.187Z,34.75
2019-04-26T13:24:22.136Z,30.97
2019-04-26T13:26:52.096Z,36.98
2019-04-26T13:29:23.519Z,28.90
2019-04-26T13:31:53.284Z,31.20
2019-04-26T13:34:23.356Z,32.28
2019-04-26T13:36:53.130Z,30.00
2019-04-26T13:39:22.997Z,29.23
2019-04-26T13:42:02.970Z,41.33
2019-04-26T13:44:41.953Z,32.05
2019-04-26T13:47:42.374Z,27.70
2019-04-26T13:50:31.416Z,29.07
2019-04-26T13:53:01.316Z,28.20
2019-04-26T13:55:33.648Z,30.23
2019-04-26T13:58:02.534Z,31.42
2019-04-26T14:00:32.838Z,35.17
2019-04-26T14:03:03.252Z,28.70
2019-04-26T14:05:33.023Z,27.48
2019-04-26T14:08:03.015Z,25.62
2019-04-26T14:10:32.882Z,30.20
2019-04-26T14:13:02.650Z,23.15
2019-04-26T14:15:32.724Z,41.55
2019-04-26T14:18:04.362Z,26.70
2019-04-26T14:20:34.051Z,28.02
2019-04-26T14:23:11.304Z,33.13
2019-04-26T14:26:05.336Z,43.30
2019-04-26T14:28:33.266Z,27.10
2019-04-26T14:31:03.090Z,32.17
2019-04-26T14:33:32.928Z,38.38
2019-04-26T14:36:02.612Z,32.45
2019-04-26T14:38:39.485Z,29.20
2019-04-26T14:41:04.781Z,30.27
2019-04-26T14:43:41.031Z,27.10
2019-04-26T14:46:06.357Z,29.23
2019-04-26T14:48:36.661Z,34.00
2019-04-26T14:51:08.462Z,40.78
2019-04-26T14:53:38.895Z,32.38
2019-04-26T14:56:08.896Z,32.95
2019-04-26T14:58:38.947Z,30.80
2019-04-26T15:01:12.412Z,34.38
2019-04-26T15:03:57.066Z,42.38
2019-04-26T15:06:32.353Z,36.90
2019-04-26T15:09:02.984Z,32.60
2019-04-26T15:11:36.115Z,37.38
2019-04-26T15:14:04.419Z,35.10
2019-04-26T15:16:34.344Z,45.60
2019-04-26T15:19:06.258Z,43.73
2019-04-26T15:21:35.555Z,32.10
2019-04-26T15:24:05.676Z,32.17
2019-04-26T15:26:35.631Z,32.55
2019-04-26T15:29:05.455Z,39.45
2019-04-26T15:31:35.282Z,38.60
2019-04-26T15:34:05.054Z,46.95
2019-04-26T15:36:34.940Z,44.38
2019-04-26T15:39:07.743Z,30.85
2019-04-26T15:41:51.375Z,39.85
2019-04-26T15:44:48.925Z,42.55
2019-04-26T15:47:35.979Z,39.73
2019-04-26T15:50:19.599Z,37.95
2019-04-26T15:52:49.422Z,31.90
2019-04-26T15:55:19.239Z,32.90
2019-04-26T15:57:49.101Z,35.30
2019-04-26T16:00:19.284Z,35.38
2019-04-26T16:02:49.175Z,39.13
2019-04-26T16:05:18.947Z,41.60
2019-04-26T16:07:48.830Z,41.15
2019-04-26T16:10:18.631Z,35.17
2019-04-26T16:12:48.483Z,40.12
2019-04-26T16:15:18.253Z,36.65
2019-04-26T16:17:48.069Z,28.05
2019-04-26T16:20:38.131Z,35.08
2019-04-26T16:25:38.331Z,40.33
2019-04-26T16:28:26.039Z,32.20
2019-04-26T16:31:06.602Z,33.33
2019-04-26T16:33:37.529Z,24.67
2019-04-26T16:36:07.362Z,10.50
2019-04-26T16:38:37.772Z,13.90
2019-04-26T16:41:08.247Z,9.73
2019-04-26T16:43:44.858Z,11.08
2019-04-26T16:46:20.190Z,17.10
2019-04-26T16:48:45.161Z,11.50
2019-04-26T16:51:43.145Z,9.08
2019-04-26T16:54:20.860Z,5.55
2019-04-26T16:56:44.798Z,10.93
2019-04-26T16:59:33.656Z,14.53
2019-04-26T17:02:06.528Z,9.13
2019-04-26T17:04:55.300Z,8.00
2019-04-26T17:07:27.434Z,8.60
2019-04-26T17:09:59.174Z,6.87
2019-04-26T17:12:28.055Z,8.20
2019-04-26T17:14:57.931Z,5.03
2019-04-26T17:17:27.823Z,12.43
2019-04-26T17:19:58.683Z,10.00
2019-04-26T17:22:56.889Z,11.45
2019-04-26T17:25:50.098Z,12.18
2019-04-26T17:28:26.227Z,13.88
2019-04-26T17:30:55.093Z,6.75
2019-04-26T17:33:28.223Z,11.75
2019-04-26T17:35:58.328Z,14.33
2019-04-26T17:38:31.431Z,10.90
2019-04-26T17:41:12.679Z,7.97
2019-04-26T17:43:47.688Z,17.05
2019-04-26T17:46:18.160Z,8.28
2019-04-26T17:48:49.315Z,11.85
2019-04-26T17:51:23.287Z,10.90
2019-04-26T17:54:20.315Z,11.35
2019-04-26T17:56:31.504Z,8.50
2019-04-26T17:59:32.722Z,14.23
2019-04-26T18:01:59.513Z,5.53
2019-04-26T18:04:34.334Z,5.45
2019-04-26T18:07:02.955Z,9.90
2019-04-26T18:09:43.032Z,9.68
2019-04-26T18:12:00.038Z,8.45
2019-04-26T18:14:30.306Z,11.15
2019-04-26T18:17:10.336Z,13.28
2019-04-26T18:20:00.566Z,6.72
2019-04-26T18:22:42.843Z,12.07
2019-04-26T18:25:14.742Z,12.37
2019-04-26T18:27:44.855Z,12.00
2019-04-26T18:30:19.179Z,13.67
2019-04-26T18:32:49.118Z,8.40
2019-04-26T18:35:20.762Z,17.27
2019-04-26T18:37:55.878Z,11.37
2019-04-26T18:40:28.278Z,10.70
2019-04-26T18:42:59.158Z,19.17
2019-04-26T18:45:34.520Z,6.17
2019-04-26T18:48:07.515Z,4.67
2019-04-26T18:50:38.242Z,8.27
2019-04-26T18:53:30.581Z,3.97
2019-04-26T18:56:21.386Z,5.60
2019-04-26T18:58:51.687Z,7.20
2019-04-26T19:01:22.964Z,4.43
2019-04-26T19:03:54.168Z,3.23
2019-04-26T19:06:30.982Z,4.47
2019-04-26T19:09:02.411Z,9.07
2019-04-26T19:11:35.652Z,4.50
2019-04-26T19:14:28.506Z,4.77
2019-04-26T19:17:21.929Z,4.87
2019-04-26T19:20:12.218Z,3.10
2019-04-26T19:22:46.534Z,4.43
2019-04-26T19:25:21.664Z,5.33
2019-04-26T19:27:50.257Z,4.20
2019-04-26T19:30:21.732Z,12.73
2019-04-26T19:32:53.893Z,11.20
2019-04-26T19:35:23.886Z,3.97
2019-04-26T19:37:53.867Z,2.30
2019-04-26T19:40:23.795Z,3.10
2019-04-26T19:42:57.552Z,4.33
2019-04-26T19:45:55.322Z,4.33
2019-04-26T19:48:44.340Z,6.23
2019-04-26T19:51:43.671Z,2.17
2019-04-26T19:54:27.685Z,5.47
2019-04-26T19:57:03.567Z,4.40
2019-04-26T19:59:32.996Z,5.03
2019-04-26T20:02:03.276Z,2.83
2019-04-26T20:04:34.183Z,3.57
2019-04-26T20:07:04.414Z,5.30
2019-04-26T20:09:34.143Z,6.03
2019-04-26T20:12:04.063Z,4.47
2019-04-26T20:14:44.961Z,3.00
2019-04-26T20:17:05.464Z,4.83
2019-04-26T20:19:37.539Z,3.00
2019-04-26T20:22:06.974Z,5.97
2019-04-26T20:24:36.832Z,4.90
2019-04-26T20:27:06.717Z,7.60
2019-04-26T20:29:36.492Z,4.20
2019-04-26T20:32:32.013Z,4.03
2019-04-26T20:35:15.528Z,6.47
2019-04-26T20:37:46.297Z,13.10
2019-04-26T20:40:21.816Z,8.80
2019-04-26T20:42:48.499Z,4.83
2019-04-26T20:45:18.475Z,3.77
2019-04-26T20:47:52.019Z,3.23
2019-04-26T20:50:21.659Z,3.13
2019-04-26T20:52:54.021Z,3.73
2019-04-26T20:55:30.259Z,3.23
2019-04-26T20:57:54.864Z,4.57
2019-04-26T21:00:26.470Z,4.60
2019-04-26T21:03:01.492Z,4.30
2019-04-26T21:05:43.371Z,3.17
2019-04-26T21:08:03.415Z,3.73
2019-04-26T21:10:35.819Z,4.23
2019-04-26T21:13:04.837Z,5.23
2019-04-26T21:15:36.110Z,2.80
2019-04-26T21:18:06.245Z,2.90
2019-04-26T21:20:36.533Z,2.63
2019-04-26T21:23:06.788Z,2.70
2019-04-26T21:25:47.980Z,2.70
2019-04-26T21:28:38.142Z,2.80
2019-04-26T21:31:45.527Z,4.23
2019-04-26T21:34:25.313Z,3.47
2019-04-26T21:37:23.025Z,3.20
2019-04-26T21:40:23.328Z,3.70
2019-04-26T21:42:55.271Z,2.80
2019-04-26T21:45:28.499Z,3.00
2019-04-26T21:48:13.843Z,2.67
2019-04-26T21:51:03.144Z,2.90
2019-04-26T21:53:34.281Z,2.80
2019-04-26T21:56:07.407Z,2.93
2019-04-26T21:58:36.313Z,2.50
2019-04-26T22:01:15.667Z,3.17
2019-04-26T22:03:47.320Z,4.33
2019-04-26T22:06:14.548Z,2.80
2019-04-26T22:08:49.772Z,2.67
2019-04-26T22:11:20.130Z,3.60
2019-04-26T22:13:59.662Z,2.83
2019-04-26T22:16:57.478Z,2.70
2019-04-26T22:19:43.191Z,2.37
2019-04-26T22:22:37.536Z,2.03
2019-04-26T22:25:08.328Z,3.30
2019-04-26T22:27:38.238Z,2.80
2019-04-26T22:30:13.314Z,2.03
2019-04-26T22:32:43.222Z,2.43
2019-04-26T22:35:19.846Z,2.73
2019-04-26T22:37:45.564Z,2.60
2019-04-26T22:40:19.566Z,1.83
2019-04-26T22:42:49.472Z,2.07
2019-04-26T22:45:29.334Z,4.30
2019-04-26T22:48:06.847Z,3.00
2019-04-26T22:50:36.655Z,3.40
2019-04-26T22:53:06.580Z,2.93
2019-04-26T22:55:36.499Z,2.53
2019-04-26T22:58:06.462Z,4.67
2019-04-26T23:00:39.187Z,2.77
2019-04-26T23:03:09.336Z,2.77
2019-04-26T23:05:39.323Z,4.97
2019-04-26T23:08:09.150Z,6.23
2019-04-26T23:10:44.980Z,2.97
2019-04-26T23:13:28.378Z,3.40
2019-04-26T23:16:17.291Z,3.43
2019-04-26T23:19:11.150Z,3.60
2019-04-26T23:21:52.725Z,3.57
2019-04-26T23:24:18.870Z,4.13
2019-04-26T23:26:48.979Z,7.27
2019-04-26T23:29:19.020Z,5.30
2019-04-26T23:31:48.899Z,3.53
2019-04-26T23:34:18.803Z,3.97
2019-04-26T23:36:50.136Z,3.60
2019-04-26T23:39:20.107Z,3.90
2019-04-26T23:41:49.894Z,3.27
2019-04-26T23:44:19.719Z,3.70
2019-04-26T23:46:49.559Z,4.30
2019-04-26T23:49:23.268Z,3.53
2019-04-26T23:51:53.356Z,3.87
2019-04-26T23:54:23.894Z,4.17
2019-04-26T23:56:55.720Z,3.80
2019-04-26T23:59:25.305Z,3.90
